Time;durP1;ratioP1;P1;durP2;ratioP2;P2;SDS_P1;SDS_P2;PMS_P1;PMS_P2;Temp;Humidity;BMP_temperature;BMP_pressure;BME280_temperature;BME280_humidity;BME280_pressure;Samples;Min_cycle;Max_cycle;Signal;HPM_P1;HPM_P2
2022/04/18 00:01:37;;;;;;;2.75;2.53;;;4.20;99.90;;;;;;7373341;19;20324;-68
2022/04/18 00:04:03;;;;;;;2.85;2.55;;;4.10;99.90;;;;;;7372950;19;20332;-71
2022/04/18 00:06:28;;;;;;;2.95;2.65;;;4.10;99.90;;;;;;7375899;19;20327;-70
2022/04/18 00:08:54;;;;;;;2.77;2.50;;;4.00;99.90;;;;;;7373984;19;20320;-71
2022/04/18 00:11:20;;;;;;;3.08;2.70;;;4.10;99.90;;;;;;7374877;19;22138;-70
2022/04/18 00:13:45;;;;;;;2.60;2.25;;;4.10;99.90;;;;;;7371857;19;21232;-71
2022/04/18 00:16:11;;;;;;;3.00;2.70;;;4.10;99.90;;;;;;7376768;19;20699;-71
2022/04/18 00:18:37;;;;;;;3.97;2.67;;;4.10;99.90;;;;;;7374864;19;20343;-71
2022/04/18 00:21:02;;;;;;;3.42;2.88;;;4.00;99.90;;;;;;7373145;19;20345;-72
2022/04/18 00:23:28;;;;;;;3.50;2.53;;;3.80;99.90;;;;;;7373244;19;20337;-72
2022/04/18 00:25:54;;;;;;;2.80;2.60;;;3.80;99.90;;;;;;7372613;19;20361;-69
2022/04/18 00:28:19;;;;;;;2.50;2.30;;;3.70;99.90;;;;;;7371279;19;20384;-71
2022/04/18 00:30:45;;;;;;;2.57;2.37;;;3.70;99.90;;;;;;7373861;19;20307;-70
2022/04/18 00:33:11;;;;;;;2.80;2.40;;;3.80;99.90;;;;;;7373350;19;21007;-71
2022/04/18 00:35:36;;;;;;;3.40;2.47;;;3.80;99.90;;;;;;7375580;19;20293;-71
2022/04/18 00:38:02;;;;;;;2.73;2.20;;;3.80;99.90;;;;;;7374844;19;20349;-69
2022/04/18 00:40:28;;;;;;;2.72;2.53;;;3.80;99.90;;;;;;7372388;19;20327;-70
2022/04/18 00:43:04;;;;;;;3.03;2.65;;;3.80;99.90;;;;;;7372152;19;20891;-71
2022/04/18 00:45:30;;;;;;;3.05;2.75;;;3.70;99.90;;;;;;7373151;19;20642;-70
2022/04/18 00:47:55;;;;;;;3.57;2.80;;;3.70;99.90;;;;;;7372875;19;20340;-70
2022/04/18 00:50:21;;;;;;;3.00;2.80;;;3.60;99.90;;;;;;7372003;19;20382;-69
2022/04/18 00:52:47;;;;;;;2.80;2.60;;;3.50;99.90;;;;;;7367649;19;20339;-69
2022/04/18 00:55:13;;;;;;;3.05;2.50;;;3.40;99.90;;;;;;7370532;19;20329;-69
2022/04/18 00:57:39;;;;;;;2.75;2.55;;;3.40;99.90;;;;;;7373354;19;20351;-68
2022/04/18 01:00:08;;;;;;;2.83;2.53;;;3.50;99.90;;;;;;7370650;19;20345;-70
2022/04/18 01:02:33;;;;;;;3.20;2.40;;;3.30;99.90;;;;;;7368313;19;21448;-69
2022/04/18 01:04:59;;;;;;;2.50;2.30;;;3.30;99.90;;;;;;7371564;19;20347;-69
2022/04/18 01:07:25;;;;;;;2.97;2.30;;;3.40;99.90;;;;;;7373260;19;20355;-71
2022/04/18 01:09:51;;;;;;;3.20;2.60;;;3.40;99.90;;;;;;7368967;19;21455;-70
2022/04/18 01:12:17;;;;;;;3.78;2.80;;;3.40;99.90;;;;;;7371584;19;20341;-71
2022/04/18 01:15:06;;;;;;;4.40;2.80;;;3.40;99.90;;;;;;7271786;19;2004550;-69
2022/04/18 01:18:01;;;;;;;3.55;2.63;;;3.30;99.90;;;;;;7382389;19;20744;-69
2022/04/18 01:20:56;;;;;;;2.80;2.60;;;3.20;99.90;;;;;;7274571;19;2004363;-69
2022/04/18 01:23:54;;;;;;;3.15;2.70;;;3.20;99.90;;;;;;7275823;19;2004203;-70
2022/04/18 01:29:28;;;;;;;2.70;2.50;;;3.00;99.90;;;;;;7377485;19;20341;-69
2022/04/18 01:31:53;;;;;;;3.30;3.00;;;2.90;99.90;;;;;;7365080;19;20337;-70
2022/04/18 01:34:19;;;;;;;4.53;3.10;;;2.90;99.90;;;;;;7376295;19;20355;-69
2022/04/18 01:36:45;;;;;;;4.15;3.13;;;2.90;99.90;;;;;;7357398;19;20378;-69
2022/04/18 01:39:14;;;;;;;4.45;3.17;;;2.80;99.90;;;;;;7378518;19;20419;-70
2022/04/18 01:41:40;;;;;;;3.67;3.20;;;2.70;99.90;;;;;;7376537;19;20340;-70
2022/04/18 01:44:08;;;;;;;3.37;3.00;;;2.70;99.90;;;;;;7375876;19;20351;-69
2022/04/18 01:46:33;;;;;;;3.03;2.73;;;2.70;99.90;;;;;;7371594;19;20333;-70
2022/04/18 01:48:59;;;;;;;4.28;3.15;;;2.70;99.90;;;;;;7373750;19;20317;-68
2022/04/18 01:51:25;;;;;;;3.57;3.27;;;2.70;99.90;;;;;;7374969;19;20309;-71
2022/04/18 01:53:54;;;;;;;3.40;3.10;;;2.60;99.90;;;;;;7373698;19;20320;-70
2022/04/18 01:56:20;;;;;;;3.67;3.20;;;2.70;99.90;;;;;;7377093;19;20356;-69
2022/04/18 01:58:45;;;;;;;4.40;3.23;;;2.50;99.90;;;;;;7378397;19;20337;-69
2022/04/18 02:01:12;;;;;;;4.38;3.75;;;2.50;99.90;;;;;;7376060;19;20329;-69
2022/04/18 02:03:43;;;;;;;3.65;3.35;;;2.50;99.90;;;;;;7375858;19;20321;-71
2022/04/18 02:06:10;;;;;;;3.55;3.25;;;2.40;99.90;;;;;;7377962;19;20373;-71
2022/04/18 02:08:36;;;;;;;3.58;3.15;;;2.30;99.90;;;;;;7378456;19;20328;-75
2022/04/18 02:11:04;;;;;;;3.67;3.00;;;2.40;99.90;;;;;;7379291;19;20343;-71
2022/04/18 02:13:34;;;;;;;3.67;2.90;;;2.40;99.90;;;;;;7380500;19;20336;-70
2022/04/18 02:16:04;;;;;;;3.38;3.08;;;2.30;99.90;;;;;;7378683;19;20313;-70
2022/04/18 02:18:30;;;;;;;3.60;2.90;;;2.30;99.90;;;;;;7382267;19;20333;-71
2022/04/18 02:20:55;;;;;;;3.80;3.30;;;2.30;99.90;;;;;;7375275;19;20348;-76
2022/04/18 02:23:22;;;;;;;3.95;3.30;;;2.40;99.90;;;;;;7375039;19;20689;-76
2022/04/18 02:25:47;;;;;;;4.22;3.70;;;2.30;99.90;;;;;;7378486;19;20333;-71
2022/04/18 02:28:15;;;;;;;4.05;3.35;;;2.20;99.90;;;;;;7377722;19;20856;-73
2022/04/18 02:30:47;;;;;;;4.35;3.92;;;2.10;99.90;;;;;;7376195;19;20404;-71
2022/04/18 02:33:12;;;;;;;3.30;3.00;;;2.10;99.90;;;;;;7377710;19;20684;-71
2022/04/18 02:35:38;;;;;;;3.80;3.50;;;2.00;99.90;;;;;;7377519;19;20340;-71
2022/04/18 02:38:04;;;;;;;4.07;3.40;;;2.00;99.90;;;;;;7378356;19;20329;-70
2022/04/18 02:40:38;;;;;;;4.75;3.72;;;1.90;99.90;;;;;;7376128;19;20316;-70
2022/04/18 02:43:05;;;;;;;4.53;3.95;;;1.90;99.90;;;;;;7379798;19;20329;-70
2022/04/18 02:45:31;;;;;;;4.03;3.40;;;1.90;99.90;;;;;;7379382;19;20324;-70
2022/04/18 02:48:15;;;;;;;5.13;3.10;;;1.80;99.90;;;;;;7379695;19;20343;-71
2022/04/18 02:50:44;;;;;;;5.03;3.50;;;1.90;99.90;;;;;;7379734;19;20864;-70
2022/04/18 02:53:11;;;;;;;4.20;3.17;;;1.90;99.90;;;;;;7381829;19;21009;-71
2022/04/18 02:55:47;;;;;;;4.93;3.50;;;2.10;99.90;;;;;;7278162;19;2004363;-70
2022/04/18 02:58:13;;;;;;;4.40;3.57;;;2.00;99.90;;;;;;7380135;19;20335;-71
2022/04/18 03:00:40;;;;;;;4.03;3.60;;;1.90;99.90;;;;;;7381319;19;20332;-73
2022/04/18 03:03:05;;;;;;;5.13;4.00;;;1.80;99.90;;;;;;7380119;19;20412;-71
2022/04/18 03:05:34;;;;;;;4.50;3.70;;;1.70;99.90;;;;;;7378699;19;20347;-71
2022/04/18 03:07:59;;;;;;;3.97;3.60;;;1.60;99.90;;;;;;7378909;19;20384;-70
2022/04/18 03:11:10;;;;;;;4.82;3.35;;;1.50;99.90;;;;;;7378957;19;21060;-76
2022/04/18 03:13:15;;;;;;;4.78;3.30;;;1.40;99.90;;;;;;7268667;19;2004356;-71
2022/04/18 03:15:40;;;;;;;3.50;3.20;;;1.40;99.90;;;;;;7375909;19;20340;-70
2022/04/18 03:18:06;;;;;;;5.22;3.50;;;1.30;99.90;;;;;;7377543;19;20357;-71
2022/04/18 03:20:32;;;;;;;3.80;3.30;;;1.30;99.90;;;;;;7376743;19;20316;-72
2022/04/18 03:22:58;;;;;;;4.07;3.33;;;1.30;99.90;;;;;;7379593;19;20346;-71
2022/04/18 03:25:44;;;;;;;3.77;3.37;;;1.30;99.90;;;;;;7278369;19;2004320;-72
2022/04/18 03:28:10;;;;;;;3.47;2.97;;;1.30;99.90;;;;;;7379109;19;20347;-72
2022/04/18 03:30:36;;;;;;;3.88;3.42;;;1.20;99.90;;;;;;7376036;19;20305;-71
2022/04/18 03:33:01;;;;;;;3.50;3.20;;;1.10;99.90;;;;;;7379677;19;20337;-70
2022/04/18 03:35:28;;;;;;;3.60;3.20;;;1.10;99.90;;;;;;7379973;19;20352;-70
2022/04/18 03:40:38;;;;;;;4.87;3.23;;;1.10;99.90;;;;;;7376701;19;20758;-71
2022/04/18 03:43:04;;;;;;;3.28;2.97;;;1.10;99.90;;;;;;7378919;19;21288;-71
2022/04/18 03:45:30;;;;;;;4.53;3.57;;;1.10;99.90;;;;;;7377040;19;20336;-70
2022/04/18 03:47:56;;;;;;;3.80;3.40;;;1.10;99.90;;;;;;7377992;19;20336;-70
2022/04/18 03:50:21;;;;;;;4.00;3.38;;;1.10;99.90;;;;;;7376450;19;20667;-70
2022/04/18 03:52:47;;;;;;;5.35;3.35;;;1.00;99.90;;;;;;7377203;19;20345;-71
2022/04/18 03:55:31;;;;;;;4.10;3.28;;;1.00;99.90;;;;;;7378192;19;20327;-71
2022/04/18 03:57:59;;;;;;;4.17;3.50;;;0.90;99.90;;;;;;7376073;19;20389;-70
2022/04/18 04:00:25;;;;;;;3.97;3.50;;;1.00;99.90;;;;;;7372385;19;20332;-70
2022/04/18 04:02:51;;;;;;;5.10;3.92;;;0.90;99.90;;;;;;7380009;19;20330;-71
2022/04/18 04:05:26;;;;;;;5.93;3.90;;;0.90;99.90;;;;;;7376131;19;20324;-71
2022/04/18 04:08:00;;;;;;;5.60;3.80;;;0.90;99.90;;;;;;7281085;19;21019;-69
2022/04/18 04:10:39;;;;;;;5.38;3.80;;;0.90;99.90;;;;;;7249289;19;20336;-71
2022/04/18 04:13:11;;;;;;;5.18;3.80;;;0.90;99.90;;;;;;7377792;19;20357;-72
2022/04/18 04:15:39;;;;;;;4.60;3.53;;;0.80;99.90;;;;;;7377486;19;20336;-72
2022/04/18 04:18:11;;;;;;;4.30;3.38;;;0.80;99.90;;;;;;7273851;19;2004351;-71
2022/04/18 04:20:37;;;;;;;4.03;3.63;;;0.90;99.90;;;;;;7376688;19;20404;-71
2022/04/18 04:23:02;;;;;;;4.05;3.65;;;0.80;99.90;;;;;;7375606;19;20387;-71
2022/04/18 04:25:38;;;;;;;7.35;4.93;;;0.80;99.90;;;;;;7376037;19;20444;-71
2022/04/18 04:28:08;;;;;;;6.63;4.67;;;0.80;99.90;;;;;;7378746;19;20915;-72
2022/04/18 04:30:34;;;;;;;6.17;4.00;;;0.80;99.90;;;;;;7374412;19;20353;-71
2022/04/18 04:33:03;;;;;;;4.35;3.85;;;0.80;99.90;;;;;;7376344;19;20341;-71
2022/04/18 04:35:29;;;;;;;5.13;3.78;;;0.80;99.90;;;;;;7375989;19;20313;-71
2022/04/18 04:38:10;;;;;;;5.60;4.20;;;0.80;99.90;;;;;;7276578;19;2005634;-72
2022/04/18 04:40:48;;;;;;;4.68;3.67;;;0.80;99.90;;;;;;7273748;19;2004424;-71
2022/04/18 04:43:27;;;;;;;5.47;4.28;;;0.80;99.90;;;;;;7375015;19;20307;-74
2022/04/18 04:45:55;;;;;;;4.97;3.90;;;0.80;99.90;;;;;;7377834;19;20677;-69
2022/04/18 04:48:26;;;;;;;8.48;4.47;;;0.80;99.90;;;;;;7378145;19;20341;-73
2022/04/18 04:50:56;;;;;;;4.30;3.90;;;0.90;99.90;;;;;;7381340;19;20876;-69
2022/04/18 04:53:22;;;;;;;6.23;4.50;;;0.90;99.90;;;;;;7381891;19;20309;-71
2022/04/18 04:55:48;;;;;;;5.15;4.63;;;0.90;99.90;;;;;;7383256;19;20337;-71
2022/04/18 04:58:14;;;;;;;4.30;3.90;;;1.00;99.90;;;;;;7384418;19;20436;-69
2022/04/18 05:00:49;;;;;;;4.50;4.10;;;1.00;99.90;;;;;;7382339;19;20358;-71
2022/04/18 05:03:41;;;;;;;5.95;4.75;;;1.10;99.90;;;;;;7382013;19;20340;-71
2022/04/18 05:06:08;;;;;;;5.28;4.28;;;1.10;99.90;;;;;;7381349;19;20372;-72
2022/04/18 05:08:39;;;;;;;5.20;3.97;;;1.20;99.90;;;;;;7383877;19;20353;-71
2022/04/18 05:11:07;;;;;;;5.60;3.80;;;1.30;99.90;;;;;;7383598;19;20320;-72
2022/04/18 05:13:52;;;;;;;5.97;4.80;;;1.40;99.90;;;;;;7279940;19;2004251;-71
2022/04/18 05:16:25;;;;;;;5.50;4.70;;;1.60;99.90;;;;;;7280324;19;2005535;-71
2022/04/18 05:18:50;;;;;;;5.57;4.80;;;1.60;99.90;;;;;;7381338;19;20379;-71
2022/04/18 05:21:16;;;;;;;7.45;5.60;;;1.70;99.90;;;;;;7382921;19;20643;-71
2022/04/18 05:23:43;;;;;;;8.13;6.18;;;1.80;99.90;;;;;;7381041;19;20320;-71
2022/04/18 05:26:09;;;;;;;10.20;6.47;;;1.90;99.90;;;;;;7380507;19;20340;-72
2022/04/18 05:28:37;;;;;;;8.57;7.05;;;1.90;99.90;;;;;;7382779;19;20334;-71
2022/04/18 05:31:05;;;;;;;6.15;5.15;;;2.00;99.90;;;;;;7382318;19;20333;-71
2022/04/18 05:33:32;;;;;;;6.20;5.10;;;2.20;99.90;;;;;;7381965;19;20860;-70
2022/04/18 05:36:21;;;;;;;4.97;4.38;;;2.40;99.90;;;;;;7381455;19;20339;-70
2022/04/18 05:38:47;;;;;;;5.55;4.90;;;2.60;99.90;;;;;;7381000;19;20352;-72
2022/04/18 05:41:17;;;;;;;6.28;5.38;;;2.70;99.90;;;;;;7382420;19;20354;-71
2022/04/18 05:43:46;;;;;;;5.80;4.80;;;2.90;99.90;;;;;;7379402;19;20423;-71
2022/04/18 05:46:12;;;;;;;8.27;6.23;;;3.00;99.90;;;;;;7380582;19;20402;-73
2022/04/18 05:48:37;;;;;;;7.20;6.20;;;3.20;99.90;;;;;;7380673;19;20391;-69
2022/04/18 05:51:04;;;;;;;7.15;4.82;;;3.10;99.90;;;;;;7381304;19;20399;-71
2022/04/18 05:53:30;;;;;;;6.20;5.03;;;3.20;99.90;;;;;;7378991;19;20301;-71
2022/04/18 05:56:12;;;;;;;5.57;4.90;;;3.40;99.90;;;;;;7383402;19;20353;-71
2022/04/18 05:58:44;;;;;;;6.63;4.60;;;3.60;99.90;;;;;;7381995;19;20446;-71
2022/04/18 06:01:30;;;;;;;5.60;4.80;;;3.80;99.90;;;;;;7380761;19;20313;-71
2022/04/18 06:04:01;;;;;;;6.32;5.00;;;4.00;99.90;;;;;;7379908;19;20329;-71
2022/04/18 06:06:27;;;;;;;8.43;5.13;;;4.10;99.90;;;;;;7380048;19;21081;-72
2022/04/18 06:08:53;;;;;;;7.28;5.40;;;4.30;99.90;;;;;;7381725;19;20335;-70
2022/04/18 06:11:25;;;;;;;5.30;4.07;;;4.50;99.90;;;;;;7379851;19;20788;-71
2022/04/18 06:13:57;;;;;;;6.63;5.28;;;4.60;99.90;;;;;;7379553;19;20344;-71
2022/04/18 06:16:24;;;;;;;7.13;5.32;;;4.80;99.90;;;;;;7378358;19;20308;-72
2022/04/18 06:18:49;;;;;;;6.70;4.40;;;4.90;99.90;;;;;;7379495;19;20728;-78
2022/04/18 06:21:15;;;;;;;5.53;4.67;;;5.00;99.90;;;;;;7379485;19;20366;-70
2022/04/18 06:23:43;;;;;;;6.10;4.60;;;5.20;99.90;;;;;;7381524;19;20336;-71
2022/04/18 06:26:28;;;;;;;6.10;4.40;;;5.30;99.90;;;;;;7277463;19;2004496;-72
2022/04/18 06:28:57;;;;;;;4.82;4.32;;;5.50;99.90;;;;;;7378477;19;20351;-72
2022/04/18 06:31:24;;;;;;;4.93;4.30;;;5.70;99.90;;;;;;7381461;19;20898;-73
2022/04/18 06:33:56;;;;;;;4.93;4.35;;;5.80;99.90;;;;;;7380965;19;20390;-72
2022/04/18 06:36:22;;;;;;;5.50;3.97;;;6.00;99.90;;;;;;7379244;19;20683;-73
2022/04/18 06:38:59;;;;;;;4.28;3.88;;;6.20;99.90;;;;;;7380097;19;20349;-72
2022/04/18 06:41:27;;;;;;;4.60;3.92;;;6.30;99.90;;;;;;7379963;19;20638;-72
2022/04/18 06:43:54;;;;;;;6.00;3.70;;;6.50;99.90;;;;;;7380634;19;20356;-73
2022/04/18 06:46:19;;;;;;;5.40;3.63;;;6.70;99.90;;;;;;7380627;19;20404;-72
2022/04/18 06:48:45;;;;;;;5.65;3.97;;;6.80;99.90;;;;;;7376562;19;20313;-72
2022/04/18 06:51:20;;;;;;;5.20;4.22;;;7.00;99.90;;;;;;7377622;19;20433;-73
2022/04/18 06:53:45;;;;;;;4.88;4.05;;;7.20;99.90;;;;;;7380495;19;20360;-72
2022/04/18 06:59:26;;;;;;;4.70;4.13;;;7.50;99.90;;;;;;7279440;19;2004567;-71
2022/04/18 07:01:53;;;;;;;4.35;3.58;;;7.80;99.90;;;;;;7378937;19;20402;-71
2022/04/18 07:04:19;;;;;;;4.80;3.65;;;7.80;99.90;;;;;;7378356;19;20355;-75
2022/04/18 07:06:45;;;;;;;5.53;3.95;;;8.10;99.90;;;;;;7380954;19;20329;-72
2022/04/18 07:09:11;;;;;;;4.15;3.78;;;8.20;99.90;;;;;;7380236;19;20356;-71
2022/04/18 07:11:48;;;;;;;3.63;3.33;;;8.40;99.90;;;;;;7377582;19;20368;-72
2022/04/18 07:14:15;;;;;;;3.33;3.00;;;8.50;99.90;;;;;;7378434;19;20822;-70
2022/04/18 07:16:43;;;;;;;3.97;3.53;;;8.70;99.90;;;;;;7381402;19;20333;-72
2022/04/18 07:19:12;;;;;;;3.80;3.13;;;8.80;99.90;;;;;;7377734;19;20342;-72
2022/04/18 07:21:39;;;;;;;5.00;3.55;;;8.90;99.90;;;;;;7378026;19;20336;-71
2022/04/18 07:24:06;;;;;;;4.57;3.50;;;9.00;99.90;;;;;;7378986;19;20322;-72
2022/04/18 07:26:32;;;;;;;4.05;3.58;;;9.10;99.90;;;;;;7380147;19;20356;-73
2022/04/18 07:28:57;;;;;;;3.63;3.13;;;9.20;99.90;;;;;;7377834;19;20336;-71
2022/04/18 07:31:23;;;;;;;4.50;3.60;;;9.60;99.90;;;;;;7378765;19;20620;-72
2022/04/18 07:33:49;;;;;;;4.10;3.47;;;9.70;99.90;;;;;;7379550;19;20341;-71
2022/04/18 07:36:19;;;;;;;3.23;2.77;;;9.80;99.90;;;;;;7378903;19;20336;-71
2022/04/18 07:38:50;;;;;;;5.10;3.33;;;10.00;99.90;;;;;;7378571;19;21159;-74
2022/04/18 07:41:24;;;;;;;5.03;3.45;;;10.30;99.90;;;;;;7275978;19;2004317;-78
2022/04/18 07:43:52;;;;;;;3.53;3.22;;;10.30;99.90;;;;;;7376600;19;20377;-78
2022/04/18 07:46:18;;;;;;;3.43;3.13;;;10.50;99.90;;;;;;7376685;19;20340;-73
2022/04/18 07:48:48;;;;;;;3.08;2.80;;;10.60;99.90;;;;;;7378753;19;20336;-75
2022/04/18 07:51:36;;;;;;;4.10;3.30;;;10.90;99.90;;;;;;7376406;19;20347;-78
2022/04/18 07:54:08;;;;;;;3.35;2.80;;;11.00;99.90;;;;;;7274563;19;2004228;-79
2022/04/18 07:56:35;;;;;;;3.60;3.03;;;11.00;99.90;;;;;;7377362;19;20339;-73
2022/04/18 07:59:02;;;;;;;3.42;3.13;;;11.20;99.90;;;;;;7379054;19;20823;-77
2022/04/18 08:01:32;;;;;;;5.03;2.88;;;11.30;99.90;;;;;;7357263;19;20702;-76
2022/04/18 08:04:00;;;;;;;5.07;3.10;;;11.50;99.90;;;;;;7381054;19;20320;-74
2022/04/18 08:06:30;;;;;;;2.35;2.15;;;11.60;99.90;;;;;;7382589;19;20280;-71
2022/04/18 08:09:10;;;;;;;2.90;2.60;;;11.60;99.90;;;;;;7279603;19;2004402;-70
2022/04/18 08:11:36;;;;;;;3.13;2.60;;;12.00;99.90;;;;;;7375137;19;20360;-71
2022/04/18 08:14:02;;;;;;;5.72;3.10;;;12.10;99.90;;;;;;7377853;19;20331;-71
2022/04/18 08:17:00;;;;;;;2.72;2.50;;;12.30;99.90;;;;;;7368960;19;20844;-72
2022/04/18 08:19:39;;;;;;;3.22;2.40;;;12.20;99.90;;;;;;7368862;19;20313;-73
2022/04/18 08:22:06;;;;;;;2.60;2.40;;;12.30;99.90;;;;;;7370734;19;20353;-71
2022/04/18 08:24:37;;;;;;;2.30;2.10;;;12.10;99.90;;;;;;7377523;19;20325;-80
2022/04/18 08:27:21;;;;;;;2.85;2.20;;;12.20;99.90;;;;;;7383837;19;20339;-72
2022/04/18 08:30:05;;;;;;;2.67;2.25;;;12.30;99.90;;;;;;7383213;19;20348;-72
2022/04/18 08:32:39;;;;;;;2.40;2.20;;;12.40;99.90;;;;;;7385003;19;20969;-72
2022/04/18 08:35:05;;;;;;;2.40;2.10;;;12.40;98.70;;;;;;7382437;19;20423;-72
2022/04/18 08:37:31;;;;;;;3.00;2.05;;;12.40;97.00;;;;;;7385196;19;20297;-70
2022/04/18 08:40:16;;;;;;;2.30;2.10;;;12.30;97.40;;;;;;7278944;19;2004463;-71
2022/04/18 08:42:43;;;;;;;2.75;1.95;;;12.40;97.20;;;;;;7383546;19;20304;-71
2022/04/18 08:45:13;;;;;;;2.33;1.90;;;12.30;94.80;;;;;;7380383;19;20325;-72
2022/04/18 08:53:10;;;;;;;1.85;1.70;;;12.80;95.60;;;;;;7377604;19;20428;-72
2022/04/18 08:55:36;;;;;;;2.30;1.98;;;12.90;94.40;;;;;;7381986;19;21031;-72
2022/04/18 08:58:17;;;;;;;1.93;1.73;;;12.80;93.80;;;;;;7383439;19;20352;-71
2022/04/18 09:00:43;;;;;;;2.05;1.77;;;13.00;95.10;;;;;;7380797;19;20353;-73
2022/04/18 09:03:27;;;;;;;1.52;1.42;;;13.10;93.10;;;;;;7380431;19;20333;-74
2022/04/18 09:06:10;;;;;;;1.60;1.50;;;13.10;92.40;;;;;;7381330;19;20416;-74
2022/04/18 09:08:51;;;;;;;2.73;1.87;;;13.20;93.10;;;;;;7281194;19;2004815;-73
2022/04/18 09:11:40;;;;;;;1.50;1.40;;;13.10;91.50;;;;;;7382275;19;20404;-73
2022/04/18 09:14:13;;;;;;;1.63;1.52;;;13.30;92.30;;;;;;7381530;19;20344;-74
2022/04/18 09:16:41;;;;;;;2.10;1.67;;;13.40;92.90;;;;;;7383261;19;21138;-74
2022/04/18 09:19:16;;;;;;;1.67;1.58;;;13.60;92.10;;;;;;7384077;19;20634;-73
2022/04/18 09:21:55;;;;;;;1.80;1.50;;;13.60;90.40;;;;;;7379976;19;20861;-74
2022/04/18 09:24:34;;;;;;;1.70;1.60;;;13.70;90.10;;;;;;7382484;19;20667;-74
2022/04/18 09:27:24;;;;;;;1.70;1.52;;;13.80;90.70;;;;;;7382658;19;20308;-74
2022/04/18 09:30:06;;;;;;;1.95;1.67;;;13.90;90.30;;;;;;7381759;19;20963;-75
2022/04/18 09:32:35;;;;;;;1.50;1.40;;;14.10;89.90;;;;;;7382140;19;20317;-74
2022/04/18 09:35:27;;;;;;;1.50;1.40;;;14.10;86.90;;;;;;7279539;19;2004623;-74
2022/04/18 09:37:59;;;;;;;1.47;1.37;;;13.70;87.90;;;;;;7383145;19;20313;-74
2022/04/18 09:40:48;;;;;;;1.90;1.60;;;14.10;85.30;;;;;;7275715;19;2004557;-74
2022/04/18 09:43:15;;;;;;;2.00;1.40;;;14.30;86.90;;;;;;7384986;19;20359;-74
2022/04/18 09:45:41;;;;;;;2.20;1.48;;;14.60;86.90;;;;;;7380272;19;20324;-76
2022/04/18 09:48:07;;;;;;;1.50;1.40;;;15.00;88.60;;;;;;7378333;19;20325;-74
2022/04/18 09:53:22;;;;;;;1.27;1.17;;;15.20;82.00;;;;;;7280480;19;2004713;-74
2022/04/18 09:55:50;;;;;;;1.30;1.20;;;15.40;82.60;;;;;;7383853;19;20337;-74
2022/04/18 09:58:16;;;;;;;1.10;1.10;;;15.80;80.60;;;;;;7382720;19;20368;-75
2022/04/18 10:00:42;;;;;;;1.35;1.25;;;16.20;80.00;;;;;;7378451;19;20340;-74
2022/04/18 10:03:08;;;;;;;1.30;1.20;;;16.20;77.10;;;;;;7384252;19;20342;-74
2022/04/18 10:05:34;;;;;;;1.37;1.27;;;16.40;75.00;;;;;;7380997;19;20327;-74
2022/04/18 10:08:03;;;;;;;1.20;1.10;;;16.50;71.50;;;;;;7379126;19;20313;-74
2022/04/18 10:10:33;;;;;;;1.30;1.20;;;16.30;73.00;;;;;;7381910;19;20361;-74
2022/04/18 10:12:59;;;;;;;1.40;1.30;;;16.60;74.30;;;;;;7381640;19;20976;-74
2022/04/18 10:15:24;;;;;;;1.10;1.10;;;16.70;72.30;;;;;;7382177;19;20321;-75
2022/04/18 10:17:50;;;;;;;1.23;1.10;;;16.80;71.10;;;;;;7382078;19;20317;-74
2022/04/18 10:20:43;;;;;;;2.17;1.27;;;17.10;70.90;;;;;;7378419;19;20341;-74
2022/04/18 10:24:07;;;;;;;1.40;1.30;;;16.90;67.70;;;;;;7278554;19;2004729;-75
2022/04/18 10:27:09;;;;;;;1.20;1.10;;;17.20;67.70;;;;;;7174552;19;2004327;-75
2022/04/18 10:29:54;;;;;;;1.30;1.20;;;17.30;68.40;;;;;;7274803;19;2004613;-76
2022/04/18 10:32:22;;;;;;;1.50;1.38;;;17.90;66.90;;;;;;7379662;19;20341;-75
2022/04/18 10:34:51;;;;;;;4.47;1.52;;;17.90;63.30;;;;;;7381779;19;20341;-76
2022/04/18 10:37:24;;;;;;;1.42;1.33;;;18.00;63.20;;;;;;7379070;19;20311;-76
2022/04/18 10:40:16;;;;;;;1.75;1.55;;;18.30;65.30;;;;;;7277348;19;2004347;-76
2022/04/18 10:42:41;;;;;;;1.70;1.60;;;18.30;63.20;;;;;;7278474;19;2004512;-75
2022/04/18 10:45:11;;;;;;;2.57;1.70;;;18.20;64.20;;;;;;7382204;19;20345;-76
2022/04/18 10:47:55;;;;;;;1.60;1.50;;;18.30;62.70;;;;;;7378162;19;20317;-78
2022/04/18 10:50:21;;;;;;;2.38;1.40;;;18.10;59.40;;;;;;7277179;19;2004360;-76
2022/04/18 10:53:18;;;;;;;1.90;1.40;;;18.30;60.60;;;;;;7380366;19;20364;-76
2022/04/18 10:55:54;;;;;;;1.98;1.60;;;18.30;60.80;;;;;;7278904;19;2004437;-75
2022/04/18 10:58:24;;;;;;;2.20;1.55;;;18.50;61.70;;;;;;7379549;19;20344;-77
2022/04/18 11:00:54;;;;;;;2.10;1.30;;;18.60;60.40;;;;;;7378943;19;20309;-75
2022/04/18 11:03:35;;;;;;;2.08;1.63;;;18.90;59.10;;;;;;7378499;19;20314;-74
2022/04/18 11:06:08;;;;;;;2.10;1.60;;;18.70;57.30;;;;;;7379279;19;20396;-76
2022/04/18 11:08:35;;;;;;;1.57;1.47;;;18.90;58.60;;;;;;7379883;19;20336;-76
2022/04/18 11:11:07;;;;;;;1.50;1.40;;;19.30;58.50;;;;;;7379263;19;20321;-78
2022/04/18 11:13:33;;;;;;;1.60;1.50;;;19.70;57.50;;;;;;7380525;19;20339;-76
2022/04/18 11:16:24;;;;;;;1.60;1.40;;;20.10;58.30;;;;;;7376671;19;20352;-75
2022/04/18 11:19:09;;;;;;;2.00;1.50;;;20.40;56.80;;;;;;7275178;19;2004493;-75
2022/04/18 11:22:04;;;;;;;1.50;1.40;;;20.50;54.30;;;;;;7376584;19;20324;-76
2022/04/18 11:24:49;;;;;;;1.50;1.40;;;20.40;53.80;;;;;;7280948;19;2004366;-76
2022/04/18 11:27:16;;;;;;;1.42;1.33;;;20.30;51.50;;;;;;7276369;19;2004150;-76
2022/04/18 11:29:43;;;;;;;1.35;1.25;;;20.20;53.60;;;;;;7376581;19;20329;-76
2022/04/18 11:32:09;;;;;;;1.30;1.20;;;20.30;52.80;;;;;;7377290;19;20333;-74
2022/04/18 11:34:35;;;;;;;2.25;1.40;;;19.90;49.80;;;;;;7379569;19;20316;-75
2022/04/18 11:37:03;;;;;;;1.25;1.10;;;19.90;50.30;;;;;;7379307;19;20329;-76
2022/04/18 11:39:48;;;;;;;1.20;1.10;;;20.50;54.50;;;;;;7379262;19;20656;-75
2022/04/18 11:42:24;;;;;;;1.30;1.17;;;21.10;51.20;;;;;;7374949;19;20348;-75
2022/04/18 11:44:51;;;;;;;1.33;1.23;;;21.50;49.00;;;;;;7376736;19;20329;-75
2022/04/18 11:47:20;;;;;;;1.33;1.20;;;21.60;48.90;;;;;;7378731;19;20335;-77
2022/04/18 11:49:46;;;;;;;1.27;1.20;;;21.30;47.70;;;;;;7379417;19;20332;-76
2022/04/18 11:52:22;;;;;;;1.38;1.17;;;21.50;49.60;;;;;;7377895;19;20341;-76
2022/04/18 11:55:11;;;;;;;1.88;1.38;;;21.70;48.00;;;;;;7373992;19;20369;-76
2022/04/18 11:57:37;;;;;;;1.45;1.30;;;21.90;48.30;;;;;;7276255;19;2004424;-75
2022/04/18 12:00:08;;;;;;;1.10;1.00;;;21.00;43.00;;;;;;7377641;19;20344;-76
2022/04/18 12:08:10;;;;;;;1.30;1.20;;;21.80;46.00;;;;;;7275239;19;2004546;-73
2022/04/18 12:10:42;;;;;;;2.23;1.30;;;22.00;46.60;;;;;;7374983;19;24193;-73
2022/04/18 12:13:09;;;;;;;1.15;1.13;;;21.80;44.40;;;;;;7378275;19;20959;-74
2022/04/18 12:15:35;;;;;;;1.00;1.00;;;22.00;44.40;;;;;;7376889;19;20352;-73
2022/04/18 12:18:11;;;;;;;1.40;1.30;;;22.50;46.10;;;;;;7379327;19;20935;-73
2022/04/18 12:20:40;;;;;;;1.43;1.20;;;22.40;43.50;;;;;;7273826;19;2004173;-74
2022/04/18 12:23:06;;;;;;;0.90;0.90;;;23.00;45.20;;;;;;7375180;19;20403;-74
2022/04/18 12:25:32;;;;;;;1.20;1.10;;;23.10;44.60;;;;;;7375183;19;20408;-74
2022/04/18 12:27:59;;;;;;;1.00;1.00;;;23.40;43.50;;;;;;7378333;19;20321;-74
2022/04/18 12:30:25;;;;;;;0.90;0.90;;;23.20;41.80;;;;;;7373275;19;20362;-74
2022/04/18 12:32:53;;;;;;;0.93;0.90;;;23.20;41.70;;;;;;7377112;19;20345;-74
2022/04/18 12:35:37;;;;;;;1.73;1.03;;;22.70;41.50;;;;;;7376771;19;20979;-73
2022/04/18 12:38:07;;;;;;;0.90;0.90;;;22.50;40.90;;;;;;7274944;19;2004685;-74
2022/04/18 12:40:43;;;;;;;1.08;0.98;;;22.40;42.00;;;;;;7375034;19;20301;-74
2022/04/18 12:43:11;;;;;;;1.02;0.90;;;23.00;40.30;;;;;;7375176;19;20328;-74
2022/04/18 12:45:47;;;;;;;1.00;1.00;;;23.80;40.30;;;;;;7375382;19;20364;-74
2022/04/18 12:48:13;;;;;;;1.10;1.00;;;24.50;39.80;;;;;;7376878;19;20332;-73
2022/04/18 12:50:39;;;;;;;1.20;1.10;;;23.90;38.90;;;;;;7373614;19;20345;-74
2022/04/18 12:53:04;;;;;;;1.23;1.10;;;24.10;39.60;;;;;;7376944;19;20358;-74
2022/04/18 12:55:30;;;;;;;0.85;0.85;;;24.20;39.00;;;;;;7375679;19;20984;-74
2022/04/18 12:58:00;;;;;;;1.20;1.10;;;24.10;37.70;;;;;;7379919;19;20292;-74
2022/04/18 13:00:36;;;;;;;0.90;0.90;;;24.30;37.00;;;;;;7374646;19;20335;-74
2022/04/18 13:03:05;;;;;;;0.80;0.80;;;24.60;37.30;;;;;;7375728;19;20360;-74
2022/04/18 13:05:32;;;;;;;0.80;0.80;;;24.90;38.00;;;;;;7378935;19;20313;-74
2022/04/18 13:08:05;;;;;;;0.90;0.90;;;25.10;36.30;;;;;;7377943;19;20464;-74
2022/04/18 13:10:32;;;;;;;0.95;0.90;;;25.20;36.90;;;;;;7377501;19;20301;-75
2022/04/18 13:13:05;;;;;;;0.90;0.90;;;25.20;34.40;;;;;;7386471;19;20416;-74
2022/04/18 13:15:31;;;;;;;0.90;0.90;;;25.50;33.80;;;;;;7380560;19;20334;-74
2022/04/18 13:18:04;;;;;;;0.77;0.77;;;26.40;36.20;;;;;;7382970;19;20316;-74
2022/04/18 13:20:31;;;;;;;1.10;1.00;;;26.40;33.00;;;;;;7279011;19;2004430;-74
2022/04/18 13:22:57;;;;;;;1.40;0.90;;;25.80;32.80;;;;;;7380529;19;20335;-74
2022/04/18 13:25:23;;;;;;;0.90;0.90;;;25.40;32.30;;;;;;7379942;19;21113;-74
2022/04/18 13:27:48;;;;;;;1.48;1.00;;;25.40;33.30;;;;;;7382371;19;20320;-75
2022/04/18 13:30:14;;;;;;;0.90;0.90;;;25.20;33.70;;;;;;7380586;19;20333;-75
2022/04/18 13:32:39;;;;;;;0.80;0.80;;;24.30;32.10;;;;;;7383652;19;20691;-75